Terminal Aerodrome Forecast
Issued by NWS Bismarck, ND

Home | Current Version | Previous Version | Text Only | Print | Product List | Glossary On
Versions: 1 2 3 4 5 6 7 8 9 10 11 12 13 14 15 16 17 18
000
FTUS43 KBIS 220100 AAA
TAFBIS
TAF AMD
KBIS 220100Z 2201/2224 15010KT P6SM OVC004
     FM220300 11007KT 5SM BR OVC003
     FM220800 05007KT 1SM -SN BR SCT002 OVC009
     FM221300 35011KT 1SM -SN BR OVC008=

USA.gov is the U.S. government's official web portal to all federal, state and local government web resources and services.